Gardiner, MT

8:06 AM MDT on October 01, 2014 (GMT -0600)
HADS MAMMOTH AT YELLOWSTONE NP WY US NIFC | Change Station
CLOSE
Current Station
Personal Weather Station
Location: Yellowstone National Park, WY
Elevation: 6298 ft
Nearby Weather Stations

Elev 6298 ft 44.98 °N, 110.70 °W | Updated 51 minutes ago

Mostly Cloudy
Mostly Cloudy
35 °F
Feels Like 35 °F
N
2
Wind Variable Wind from South
Gusts 3.0 mph

Today
High -- | Low -- °F
--% Chance of Precip.
Yesterday
High -- | Low -- °F
Precip. -- in
7:20 AM 7:03 PM
Waxing Crescent, 48% visible
Pressure 30.03 in
Visibility 10.0 miles
Clouds Scattered Clouds 6000 ft
Windchill 35 °F
Dew Point 29 °F
Humidity 78%
Rainfall 0.38 in
Snow Depth 0 in , 0 in , 0 in
UV 0 out of 12
Pollen 3.40 out of 12
Air Quality Not available.
Flu Activity Not available.
METAR KWYS 011355Z AUTO 00000KT 10SM SCT060 00/00 A3003 RMK AO2

More Conditions Fewer Conditions

Pressure 30.03 in
Visibility 10.0 miles
Clouds Scattered Clouds 6000 ft
Windchill 35 °F
Dew Point 29 °F
Humidity 78%
Rainfall 0.38 in
Snow Depth 0 in , 0 in , 0 in
UV 0 out of 12
Pollen 3.40 out of 12
Air Quality Not available.
Flu Activity Not available.
METAR KWYS 011355Z AUTO 00000KT 10SM SCT060 00/00 A3003 RMK AO2

More Conditions Fewer Conditions

10-Day Weather Forecast

Almanac

Astronomy

Oct. 01, 2014 Rise Set
Actual Time 7:20 AM MDT 7:03 PM MDT
Civil Twilight 6:51 AM MDT 7:32 PM MDT
Nautical Twilight 6:17 AM MDT 8:06 PM MDT
Astronomical Twilight 5:42 AM MDT 8:40 PM MDT
Moon 2:36 PM MDT No Moon Set
Length of Visible Light 12h 40m
Length of Day
11h 42m
Tomorrow will be 3m 6s shorter.
Waxing Crescent, 48% of the Moon is Illuminated
Today
Waxing Crescent
Oct 1
First Quarter
Oct 8
Full
Oct 15
Last Quarter
Oct 23
New

Today's Extremes

State Highs State Lows

Community

WunderPhotos

Upload Photos

1,757,944 photos uploaded!

Nearby

Snow Depth

Station Depth Elevation
Frohner Meadow 0 in 6480 ft
Stringer Creek 0 in 6550 ft
Combination 0 in 5600 ft
Rocker Peak 0 in 8000 ft
Twelvemile Creek 0 in 5600 ft

Earthquake Activity

City Distance Mag. Time & Date
No recent earthquake activity has been reported nearby.
Minimum magnitude displayed is 2.5.

Coastal Water Temperatures

Place Temperature
No Stations Reporting

Nearby Weather Stations